createdAt,value
2022-08-12T00:00:10.788Z, 37.08
2022-08-12T00:01:10.819Z, 37.00
2022-08-12T00:02:10.794Z, 37.06
2022-08-12T00:03:10.935Z, 37.10
2022-08-12T00:04:10.835Z, 36.97
2022-08-12T00:05:10.849Z, 36.79
2022-08-12T00:06:10.897Z, 36.87
2022-08-12T00:07:10.908Z, 36.80
2022-08-12T00:08:10.948Z, 36.63
2022-08-12T00:09:10.986Z, 36.59
2022-08-12T00:10:11.012Z, 36.70
2022-08-12T00:11:12.713Z, 36.83
2022-08-12T00:12:11.133Z, 36.75
2022-08-12T00:13:11.114Z, 36.89
2022-08-12T00:14:11.118Z, 36.74
2022-08-12T00:15:11.166Z, 36.63
2022-08-12T00:16:11.192Z, 36.97
2022-08-12T00:17:11.246Z, 36.84
2022-08-12T00:18:11.246Z, 36.74
2022-08-12T00:19:11.270Z, 37.00
2022-08-12T00:20:11.295Z, 36.94
2022-08-12T00:21:11.388Z, 36.91
2022-08-12T00:22:11.444Z, 36.79
2022-08-12T00:23:11.441Z, 36.94
2022-08-12T00:24:11.484Z, 36.56
2022-08-12T00:25:11.533Z, 36.69
2022-08-12T00:26:23.823Z, 36.86
2022-08-12T00:27:11.594Z, 36.82
2022-08-12T00:28:11.599Z, 36.91
2022-08-12T00:29:11.692Z, 37.05
2022-08-12T00:30:11.670Z, 36.96
2022-08-12T00:31:11.699Z, 36.74
2022-08-12T00:32:13.463Z, 36.96
2022-08-12T00:33:11.802Z, 36.83
2022-08-12T00:34:11.797Z, 36.72
2022-08-12T00:35:11.798Z, 36.71
2022-08-12T00:36:15.767Z, 36.64
2022-08-12T00:37:13.010Z, 36.82
2022-08-12T00:38:11.964Z, 36.93
2022-08-12T00:39:12.008Z, 36.79
2022-08-12T00:40:12.133Z, 36.60
2022-08-12T00:41:12.020Z, 36.71
2022-08-12T00:42:12.039Z, 36.65
2022-08-12T00:43:12.074Z, 36.51
2022-08-12T00:44:12.181Z, 36.74
2022-08-12T00:45:12.229Z, 36.52
2022-08-12T00:46:12.199Z, 36.51
2022-08-12T00:47:25.396Z, 36.51
2022-08-12T00:48:12.269Z, 36.51
2022-08-12T00:49:12.296Z, 36.62
2022-08-12T00:50:12.373Z, 36.68
2022-08-12T00:51:12.415Z, 36.73
2022-08-12T00:52:12.413Z, 36.75
2022-08-12T00:53:12.441Z, 36.53
2022-08-12T00:54:12.520Z, 36.61
2022-08-12T00:55:12.510Z, 36.78
2022-08-12T00:56:12.539Z, 36.62
2022-08-12T00:57:12.572Z, 36.69
2022-08-12T00:58:12.593Z, 36.58
2022-08-12T00:59:12.679Z, 36.67
2022-08-12T01:00:12.696Z, 36.50
2022-08-12T01:01:12.772Z, 36.70
2022-08-12T01:02:12.931Z, 36.68
2022-08-12T01:03:12.768Z, 36.71
2022-08-12T01:04:12.848Z, 36.67
2022-08-12T01:05:12.895Z, 36.56
2022-08-12T01:06:12.923Z, 36.65
2022-08-12T01:07:12.907Z, 36.73
2022-08-12T01:08:12.933Z, 36.59
2022-08-12T01:09:12.964Z, 36.89
2022-08-12T01:10:13.011Z, 36.77
2022-08-12T01:11:13.025Z, 36.96
2022-08-12T01:12:13.059Z, 36.65
2022-08-12T01:13:19.893Z, 36.67
2022-08-12T01:14:13.164Z, 36.87
2022-08-12T01:15:13.182Z, 36.85
2022-08-12T01:16:13.272Z, 36.66
2022-08-12T01:17:13.263Z, 36.67
2022-08-12T01:18:13.297Z, 36.51
2022-08-12T01:19:13.326Z, 36.56
2022-08-12T01:20:13.358Z, 36.86
2022-08-12T01:21:13.398Z, 36.72
2022-08-12T01:22:13.483Z, 36.64
2022-08-12T01:23:13.468Z, 36.72
2022-08-12T01:24:29.619Z, 36.67
2022-08-12T01:25:13.511Z, 36.64
2022-08-12T01:26:13.547Z, 36.86
2022-08-12T01:27:13.568Z, 36.72
2022-08-12T01:28:13.587Z, 36.68
2022-08-12T01:29:13.620Z, 36.86
2022-08-12T01:30:13.715Z, 36.53
2022-08-12T01:31:16.306Z, 36.83
2022-08-12T01:32:13.757Z, 36.79
2022-08-12T01:33:13.889Z, 36.60
2022-08-12T01:34:33.354Z, 36.62
2022-08-12T01:35:13.903Z, 36.65
2022-08-12T01:36:13.920Z, 36.73
2022-08-12T01:37:13.898Z, 36.66
2022-08-12T01:38:13.922Z, 36.66
2022-08-12T01:39:13.995Z, 36.72
2022-08-12T01:40:35.057Z, 36.53
2022-08-12T01:41:14.015Z, 36.79
2022-08-12T01:42:14.117Z, 36.55
2022-08-12T01:43:14.108Z, 36.67
2022-08-12T01:44:14.108Z, 36.46
2022-08-12T01:45:14.217Z, 36.42
2022-08-12T01:46:14.196Z, 36.59
2022-08-12T01:47:14.247Z, 36.70
2022-08-12T01:48:14.325Z, 36.53
2022-08-12T01:49:14.319Z, 36.65
2022-08-12T01:50:14.317Z, 36.62
2022-08-12T01:52:14.740Z, 36.35
2022-08-12T01:52:20.257Z, 36.56
2022-08-12T01:53:14.447Z, 36.56
2022-08-12T01:54:14.471Z, 36.35
2022-08-12T01:55:14.505Z, 36.46
2022-08-12T01:56:14.567Z, 36.45
2022-08-12T01:57:14.593Z, 36.46
2022-08-12T01:58:14.647Z, 36.34
2022-08-12T01:59:14.666Z, 36.26
2022-08-12T02:00:14.653Z, 36.64
2022-08-12T02:01:14.790Z, 36.34
2022-08-12T02:02:14.717Z, 36.51
2022-08-12T02:03:14.729Z, 36.52
2022-08-12T02:04:14.814Z, 36.58
2022-08-12T02:05:14.784Z, 36.44
2022-08-12T02:06:14.876Z, 36.43
2022-08-12T02:07:14.865Z, 36.43
2022-08-12T02:08:14.909Z, 36.46
2022-08-12T02:09:15.008Z, 36.49
2022-08-12T02:10:50.564Z, 36.30
2022-08-12T02:11:15.045Z, 36.64
2022-08-12T02:12:15.066Z, 36.39
2022-08-12T02:13:15.132Z, 36.56
2022-08-12T02:14:15.146Z, 36.41
2022-08-12T02:15:15.189Z, 36.36
2022-08-12T02:16:15.214Z, 36.43
2022-08-12T02:17:15.195Z, 36.77
2022-08-12T02:18:15.222Z, 36.46
2022-08-12T02:19:22.255Z, 36.47
2022-08-12T02:20:18.539Z, 36.33
2022-08-12T02:21:15.370Z, 36.41
2022-08-12T02:22:15.414Z, 36.44
2022-08-12T02:23:15.393Z, 36.74
2022-08-12T02:24:15.428Z, 36.56
2022-08-12T02:25:15.500Z, 36.13
2022-08-12T02:26:15.506Z, 36.40
2022-08-12T02:27:15.509Z, 36.71
2022-08-12T02:28:15.539Z, 36.63
2022-08-12T02:29:15.582Z, 36.56
2022-08-12T02:30:15.619Z, 36.44
2022-08-12T02:31:15.657Z, 36.30
2022-08-12T02:32:15.694Z, 36.25
2022-08-12T02:33:15.717Z, 36.30
2022-08-12T02:34:15.751Z, 36.30
2022-08-12T02:35:15.831Z, 36.34
2022-08-12T02:36:15.882Z, 36.45
2022-08-12T02:37:15.861Z, 36.56
2022-08-12T02:38:15.913Z, 36.20
2022-08-12T02:39:16.023Z, 36.31
2022-08-12T02:40:15.963Z, 36.36
2022-08-12T02:41:15.982Z, 36.43
2022-08-12T02:42:16.000Z, 36.47
2022-08-12T02:43:16.037Z, 36.47
2022-08-12T02:44:16.102Z, 36.25
2022-08-12T02:45:16.096Z, 36.19
2022-08-12T02:46:16.176Z, 36.27
2022-08-12T02:47:58.399Z, 36.36
2022-08-12T02:48:16.189Z, 36.27
2022-08-12T02:49:16.278Z, 36.48
2022-08-12T02:50:16.275Z, 36.37
2022-08-12T02:51:16.272Z, 36.37
2022-08-12T02:52:16.309Z, 36.47
2022-08-12T02:53:16.349Z, 36.51
2022-08-12T02:54:16.394Z, 36.43
2022-08-12T02:55:28.826Z, 36.33
2022-08-12T02:56:16.448Z, 36.25
2022-08-12T02:57:16.462Z, 36.47
2022-08-12T02:58:16.493Z, 36.15
2022-08-12T02:59:16.544Z, 36.33
2022-08-12T03:00:16.568Z, 36.33
2022-08-12T03:01:16.668Z, 36.38
2022-08-12T03:02:16.626Z, 36.52
2022-08-12T03:03:16.724Z, 36.21
2022-08-12T03:04:20.860Z, 36.35
2022-08-12T03:05:16.718Z, 36.15
2022-08-12T03:06:16.773Z, 36.37
2022-08-12T03:07:16.816Z, 36.24
2022-08-12T03:08:20.174Z, 36.16
2022-08-12T03:09:16.878Z, 36.26
2022-08-12T03:10:18.078Z, 36.40
2022-08-12T03:11:17.004Z, 36.36
2022-08-12T03:12:17.054Z, 36.38
2022-08-12T03:13:17.031Z, 36.09
2022-08-12T03:14:17.028Z, 36.27
2022-08-12T03:15:17.063Z, 36.17
2022-08-12T03:16:17.120Z, 36.21
2022-08-12T03:17:17.178Z, 36.13
2022-08-12T03:18:27.298Z, 36.24
2022-08-12T03:19:17.191Z, 36.38
2022-08-12T03:20:17.228Z, 36.38
2022-08-12T03:21:17.277Z, 36.39
2022-08-12T03:22:17.306Z, 36.38
2022-08-12T03:23:28.652Z, 36.32
2022-08-12T03:24:17.443Z, 36.20
2022-08-12T03:25:17.443Z, 36.24
2022-08-12T03:26:17.432Z, 36.33
2022-08-12T03:27:17.474Z, 36.07
2022-08-12T03:28:23.841Z, 36.14
2022-08-12T03:29:17.579Z, 36.39
2022-08-12T03:30:17.622Z, 36.42
2022-08-12T03:31:17.605Z, 36.30
2022-08-12T03:32:35.761Z, 36.29
2022-08-12T03:33:17.647Z, 36.28
2022-08-12T03:34:17.659Z, 36.16
2022-08-12T03:35:36.963Z, 36.36
2022-08-12T03:36:17.709Z, 36.35
2022-08-12T03:37:17.752Z, 36.29
2022-08-12T03:38:17.822Z, 36.45
2022-08-12T03:39:18.421Z, 36.15
2022-08-12T03:40:17.882Z, 36.08
2022-08-12T03:41:17.965Z, 36.31
2022-08-12T03:42:17.982Z, 36.43
2022-08-12T03:43:17.967Z, 36.33
2022-08-12T03:44:18.724Z, 36.29
2022-08-12T03:45:18.062Z, 36.22
2022-08-12T03:46:18.111Z, 36.35
2022-08-12T03:47:18.161Z, 36.21
2022-08-12T03:48:18.794Z, 36.25
2022-08-12T03:49:18.183Z, 36.51
2022-08-12T03:50:18.233Z, 36.27
2022-08-12T03:51:18.258Z, 36.40
2022-08-12T03:52:18.336Z, 36.23
2022-08-12T03:53:18.358Z, 36.27
2022-08-12T03:54:18.426Z, 36.19
2022-08-12T03:55:18.447Z, 35.96
2022-08-12T03:56:18.443Z, 36.18
2022-08-12T03:57:18.494Z, 36.15
2022-08-12T03:58:18.481Z, 36.14
2022-08-12T03:59:18.582Z, 36.24
2022-08-12T04:00:24.138Z, 36.05
2022-08-12T04:01:18.724Z, 36.06
2022-08-12T04:02:18.668Z, 36.01
2022-08-12T04:03:18.662Z, 36.07
2022-08-12T04:04:18.712Z, 36.30
2022-08-12T04:05:21.621Z, 36.09
2022-08-12T04:06:18.795Z, 36.06
2022-08-12T04:07:18.785Z, 36.06
2022-08-12T04:08:18.809Z, 36.05
2022-08-12T04:09:18.919Z, 36.24
2022-08-12T04:10:18.902Z, 36.20
2022-08-12T04:11:18.917Z, 36.13
2022-08-12T04:12:18.959Z, 36.36
2022-08-12T04:13:19.000Z, 36.42
2022-08-12T04:14:19.019Z, 36.38
2022-08-12T04:15:19.086Z, 36.19
2022-08-12T04:16:19.071Z, 36.23
2022-08-12T04:17:19.121Z, 36.22
2022-08-12T04:18:19.228Z, 36.31
2022-08-12T04:19:19.215Z, 36.29
2022-08-12T04:20:19.238Z, 36.37
2022-08-12T04:21:19.323Z, 36.27
2022-08-12T04:22:19.319Z, 36.37
2022-08-12T04:23:19.335Z, 36.45
2022-08-12T04:24:19.420Z, 36.34
2022-08-12T04:25:19.402Z, 36.38
2022-08-12T04:26:19.430Z, 36.52
2022-08-12T04:27:19.465Z, 36.37
2022-08-12T04:28:19.524Z, 36.54
2022-08-12T04:29:19.522Z, 36.44
2022-08-12T04:30:32.566Z, 36.37
2022-08-12T04:31:19.589Z, 36.45
2022-08-12T04:32:19.606Z, 36.49
2022-08-12T04:33:19.681Z, 36.76
2022-08-12T04:34:19.677Z, 36.65
2022-08-12T04:35:19.735Z, 36.45
2022-08-12T04:36:19.739Z, 36.56
2022-08-12T04:37:19.782Z, 36.67
2022-08-12T04:38:19.825Z, 36.40
2022-08-12T04:39:19.861Z, 36.45
2022-08-12T04:40:28.510Z, 36.80
2022-08-12T04:41:19.923Z, 36.35
2022-08-12T04:42:19.976Z, 36.53
2022-08-12T04:44:01.480Z, 36.57
2022-08-12T04:44:20.038Z, 36.90
2022-08-12T04:45:22.571Z, 36.53
2022-08-12T04:46:23.929Z, 36.57
2022-08-12T04:47:20.179Z, 36.40
2022-08-12T04:48:20.176Z, 36.66
2022-08-12T04:49:20.179Z, 36.36
2022-08-12T04:50:33.997Z, 36.66
2022-08-12T04:51:20.270Z, 36.63
2022-08-12T04:52:20.277Z, 36.59
2022-08-12T04:53:20.303Z, 36.64
2022-08-12T04:54:20.419Z, 36.43
2022-08-12T04:55:20.354Z, 36.50
2022-08-12T04:56:20.423Z, 36.77
2022-08-12T04:57:20.487Z, 36.69
2022-08-12T04:58:29.331Z, 36.54
2022-08-12T04:59:20.501Z, 36.56
2022-08-12T05:00:20.510Z, 36.49
2022-08-12T05:01:20.532Z, 36.46
2022-08-12T05:02:22.423Z, 36.52
2022-08-12T05:03:20.614Z, 36.80
2022-08-12T05:04:20.670Z, 36.57
2022-08-12T05:05:20.712Z, 36.47
2022-08-12T05:06:27.032Z, 36.66
2022-08-12T05:07:20.780Z, 36.70
2022-08-12T05:08:20.806Z, 36.53
2022-08-12T05:09:20.825Z, 36.54
2022-08-12T05:10:20.857Z, 36.55
2022-08-12T05:11:20.887Z, 36.56
2022-08-12T05:12:20.919Z, 36.75
2022-08-12T05:13:20.953Z, 36.42
2022-08-12T05:14:20.977Z, 36.68
2022-08-12T05:15:29.439Z, 36.54
2022-08-12T05:16:27.155Z, 36.92
2022-08-12T05:17:21.080Z, 36.60
2022-08-12T05:18:21.116Z, 36.43
2022-08-12T05:19:22.505Z, 36.46
2022-08-12T05:20:21.181Z, 36.63
2022-08-12T05:21:21.209Z, 36.63
2022-08-12T05:22:21.241Z, 36.58
2022-08-12T05:23:21.267Z, 36.69
2022-08-12T05:24:21.310Z, 37.00
2022-08-12T05:25:22.340Z, 36.74
2022-08-12T05:26:21.369Z, 35.80
2022-08-12T05:27:21.395Z, 35.12
2022-08-12T05:28:21.408Z, 34.86
2022-08-12T05:30:06.503Z, 35.17
2022-08-12T05:30:21.472Z, 34.31
2022-08-12T05:31:42.344Z, 34.78
2022-08-12T05:32:21.575Z, 35.78
2022-08-12T05:33:21.564Z, 36.50
2022-08-12T05:34:25.013Z, 36.67
2022-08-12T05:35:22.550Z, 36.85
2022-08-12T05:36:21.732Z, 36.72
2022-08-12T05:37:21.711Z, 36.76
2022-08-12T05:38:21.718Z, 36.88
2022-08-12T05:39:21.783Z, 36.98
2022-08-12T05:40:21.796Z, 37.02
2022-08-12T05:41:21.891Z, 36.82
2022-08-12T05:42:21.881Z, 37.17
2022-08-12T05:43:21.910Z, 37.27
2022-08-12T05:44:21.955Z, 36.94
2022-08-12T05:45:22.039Z, 37.03
2022-08-12T05:46:22.029Z, 36.89
2022-08-12T05:47:22.040Z, 37.26
2022-08-12T05:48:22.129Z, 37.24
2022-08-12T05:49:22.160Z, 37.15
2022-08-12T05:50:22.189Z, 37.13
2022-08-12T05:51:22.224Z, 37.11
2022-08-12T05:52:22.254Z, 37.07
2022-08-12T05:53:22.271Z, 36.36
2022-08-12T05:54:41.186Z, 34.78
2022-08-12T05:55:22.356Z, 35.60
2022-08-12T05:56:22.402Z, 36.61
2022-08-12T05:57:22.471Z, 36.92
2022-08-12T05:58:22.452Z, 37.05
2022-08-12T05:59:22.486Z, 37.16
2022-08-12T06:00:22.551Z, 36.93
2022-08-12T06:02:08.880Z, 36.97
2022-08-12T06:02:22.589Z, 37.01
2022-08-12T06:03:22.634Z, 37.20
2022-08-12T06:04:22.622Z, 37.21
2022-08-12T06:05:22.695Z, 37.26
2022-08-12T06:06:25.382Z, 37.02
2022-08-12T06:07:42.811Z, 37.07
2022-08-12T06:08:22.780Z, 37.20
2022-08-12T06:09:23.018Z, 37.33
2022-08-12T06:10:31.728Z, 37.27
2022-08-12T06:11:22.823Z, 37.19
2022-08-12T06:12:22.867Z, 37.11
2022-08-12T06:13:28.588Z, 37.29
2022-08-12T06:14:22.936Z, 37.16
2022-08-12T06:15:22.968Z, 37.11
2022-08-12T06:16:23.003Z, 37.22
2022-08-12T06:17:23.032Z, 37.48
2022-08-12T06:18:26.624Z, 37.55
2022-08-12T06:19:23.103Z, 37.20
2022-08-12T06:20:28.885Z, 37.51
2022-08-12T06:21:23.223Z, 37.51
2022-08-12T06:22:23.224Z, 37.28
2022-08-12T06:23:23.222Z, 37.21
2022-08-12T06:24:23.246Z, 37.60
2022-08-12T06:25:23.271Z, 37.43
2022-08-12T06:26:23.315Z, 37.24
2022-08-12T06:27:23.351Z, 37.36
2022-08-12T06:28:23.410Z, 37.36
2022-08-12T06:30:09.662Z, 37.32
2022-08-12T06:30:33.497Z, 37.45
2022-08-12T06:31:26.308Z, 37.69
2022-08-12T06:32:27.534Z, 37.60
2022-08-12T06:33:24.586Z, 37.67
2022-08-12T06:35:25.701Z, 37.42
2022-08-12T06:35:48.867Z, 37.61
2022-08-12T06:36:23.674Z, 37.48
2022-08-12T06:37:25.408Z, 37.54
2022-08-12T06:38:23.756Z, 37.52
2022-08-12T06:39:23.910Z, 37.50
2022-08-12T06:40:23.831Z, 37.78
2022-08-12T06:41:23.828Z, 37.56
2022-08-12T06:42:42.091Z, 37.58
2022-08-12T06:43:23.953Z, 37.70
2022-08-12T06:44:23.996Z, 37.68
2022-08-12T06:45:23.962Z, 37.87
2022-08-12T06:46:24.067Z, 37.84
2022-08-12T06:47:24.040Z, 37.43
2022-08-12T06:48:24.044Z, 37.67
2022-08-12T06:49:24.128Z, 37.54
2022-08-12T06:50:24.125Z, 37.98
2022-08-12T06:51:24.180Z, 38.03
2022-08-12T06:52:24.211Z, 37.86
2022-08-12T06:53:24.234Z, 37.65
2022-08-12T06:54:29.799Z, 38.07
2022-08-12T06:55:24.295Z, 37.67
2022-08-12T06:56:39.821Z, 37.83
2022-08-12T06:58:06.768Z, 37.84
2022-08-12T06:58:24.420Z, 37.57
2022-08-12T06:59:24.438Z, 37.91
2022-08-12T07:00:31.274Z, 38.03
2022-08-12T07:01:24.595Z, 37.68
2022-08-12T07:02:24.584Z, 37.84
2022-08-12T07:03:24.569Z, 37.89
2022-08-12T07:04:36.867Z, 37.71
2022-08-12T07:05:24.650Z, 37.73
2022-08-12T07:06:24.671Z, 37.74
2022-08-12T07:07:24.708Z, 37.87
2022-08-12T07:08:24.780Z, 37.88
2022-08-12T07:10:03.624Z, 37.82
2022-08-12T07:10:24.925Z, 37.86
2022-08-12T07:11:24.823Z, 37.91
2022-08-12T07:12:27.024Z, 37.92
2022-08-12T07:13:24.885Z, 38.00
2022-08-12T07:14:24.989Z, 38.09
2022-08-12T07:15:24.970Z, 37.99
2022-08-12T07:16:25.074Z, 37.77
2022-08-12T07:17:25.120Z, 37.68
2022-08-12T07:18:25.087Z, 37.70
2022-08-12T07:19:25.094Z, 38.03
2022-08-12T07:20:51.194Z, 38.24
2022-08-12T07:22:01.854Z, 38.27
2022-08-12T07:22:25.284Z, 38.08
2022-08-12T07:23:25.313Z, 37.96
2022-08-12T07:24:25.307Z, 38.15
2022-08-12T07:25:25.306Z, 38.11
2022-08-12T07:26:26.781Z, 37.98
2022-08-12T07:27:25.422Z, 38.01
2022-08-12T07:28:25.405Z, 38.05
2022-08-12T07:29:25.414Z, 37.96
2022-08-12T07:30:25.432Z, 38.13
2022-08-12T07:31:25.491Z, 38.17
2022-08-12T07:32:29.419Z, 37.91
2022-08-12T07:33:25.538Z, 38.33
2022-08-12T07:34:25.563Z, 38.16
2022-08-12T07:35:25.596Z, 38.34
2022-08-12T07:36:25.639Z, 38.12
2022-08-12T07:37:25.696Z, 38.30
2022-08-12T07:38:29.014Z, 38.13
2022-08-12T07:39:25.813Z, 37.95
2022-08-12T07:40:25.798Z, 38.09
2022-08-12T07:41:25.832Z, 38.13
2022-08-12T07:42:26.547Z, 38.01
2022-08-12T07:43:25.963Z, 38.02
2022-08-12T07:44:25.967Z, 38.27
2022-08-12T07:45:26.019Z, 38.40
2022-08-12T07:46:26.023Z, 38.40
2022-08-12T07:47:26.044Z, 38.29
2022-08-12T07:48:26.145Z, 38.29
2022-08-12T07:49:26.133Z, 38.32
2022-08-12T07:50:26.167Z, 38.08
2022-08-12T07:51:26.149Z, 38.31
2022-08-12T07:52:26.168Z, 38.48
2022-08-12T07:53:26.208Z, 38.20
2022-08-12T07:54:26.315Z, 38.40
2022-08-12T07:55:26.344Z, 38.21
2022-08-12T07:56:26.332Z, 38.31
2022-08-12T07:57:26.399Z, 38.07
2022-08-12T07:58:26.435Z, 38.18
2022-08-12T07:59:26.409Z, 37.95
2022-08-12T08:00:26.444Z, 37.87
2022-08-12T08:01:26.538Z, 37.52
2022-08-12T08:02:27.185Z, 38.06
2022-08-12T08:03:26.601Z, 38.22
2022-08-12T08:04:26.629Z, 37.70
2022-08-12T08:05:26.639Z, 38.19
2022-08-12T08:06:26.636Z, 38.12
2022-08-12T08:07:26.670Z, 38.23
2022-08-12T08:08:26.703Z, 38.41
2022-08-12T08:09:26.758Z, 37.91
2022-08-12T08:10:26.848Z, 38.30
2022-08-12T08:11:26.817Z, 37.88
2022-08-12T08:12:26.843Z, 38.10
2022-08-12T08:13:26.883Z, 38.26
2022-08-12T08:14:26.894Z, 38.27
2022-08-12T08:15:51.105Z, 38.13
2022-08-12T08:16:27.029Z, 38.12
2022-08-12T08:17:27.009Z, 37.58
2022-08-12T08:18:27.674Z, 38.08
2022-08-12T08:19:27.055Z, 38.19
2022-08-12T08:20:27.134Z, 38.31
2022-08-12T08:21:27.111Z, 37.88
2022-08-12T08:22:40.663Z, 37.27
2022-08-12T08:23:29.439Z, 37.94
2022-08-12T08:24:27.212Z, 37.76
2022-08-12T08:25:36.255Z, 38.19
2022-08-12T08:26:27.424Z, 37.98
2022-08-12T08:27:27.289Z, 38.06
2022-08-12T08:28:27.374Z, 37.75
2022-08-12T08:29:27.389Z, 37.69
2022-08-12T08:30:27.392Z, 37.96
2022-08-12T08:31:27.425Z, 37.45
2022-08-12T08:32:27.466Z, 37.49
2022-08-12T08:34:09.214Z, 38.07
2022-08-12T08:35:28.184Z, 37.37
2022-08-12T08:36:27.590Z, 38.02
2022-08-12T08:37:32.873Z, 37.68
2022-08-12T08:38:32.311Z, 37.43
2022-08-12T08:39:27.838Z, 37.95
2022-08-12T08:40:27.797Z, 37.17
2022-08-12T08:42:19.111Z, 37.41
2022-08-12T08:42:27.862Z, 37.91
2022-08-12T08:43:44.237Z, 37.38
2022-08-12T08:44:27.853Z, 37.37
2022-08-12T08:45:27.882Z, 37.77
2022-08-12T08:46:27.991Z, 37.86
2022-08-12T08:47:27.980Z, 37.34
2022-08-12T08:48:28.006Z, 37.89
2022-08-12T08:49:28.092Z, 37.53
2022-08-12T08:50:28.073Z, 37.16
2022-08-12T08:51:28.106Z, 37.27
2022-08-12T08:52:39.772Z, 37.45
2022-08-12T08:53:28.149Z, 38.17
2022-08-12T08:54:28.257Z, 37.81
2022-08-12T08:55:48.030Z, 37.20
2022-08-12T08:56:28.255Z, 37.36
2022-08-12T08:57:43.503Z, 37.10
2022-08-12T08:58:28.307Z, 37.56
2022-08-12T08:59:28.341Z, 37.62
2022-08-12T09:00:28.414Z, 37.27
2022-08-12T09:01:37.272Z, 37.97
2022-08-12T09:02:28.452Z, 37.22
2022-08-12T09:05:08.691Z, 37.93
2022-08-12T09:05:12.289Z, 37.70
2022-08-12T09:06:01.856Z, 38.15
2022-08-12T09:06:37.408Z, 37.79
2022-08-12T09:08:28.968Z, 37.70
2022-08-12T09:10:31.205Z, 37.61
2022-08-12T09:12:10.663Z, 38.15
2022-08-12T09:12:30.122Z, 38.16
2022-08-12T09:13:29.317Z, 38.10
2022-08-12T09:14:29.309Z, 38.01
2022-08-12T09:15:35.456Z, 37.72
2022-08-12T09:16:28.887Z, 37.83
2022-08-12T09:18:33.191Z, 37.72
2022-08-12T09:19:29.017Z, 37.34
2022-08-12T09:21:29.128Z, 37.35
2022-08-12T09:22:49.009Z, 38.25
2022-08-12T09:24:30.065Z, 37.98
2022-08-12T09:26:29.230Z, 37.80
2022-08-12T09:27:57.933Z, 37.44
2022-08-12T09:28:31.393Z, 38.26
2022-08-12T09:30:12.509Z, 37.54
2022-08-12T09:30:41.001Z, 37.49
2022-08-12T09:32:03.429Z, 37.36
2022-08-12T09:33:04.928Z, 37.79
2022-08-12T09:34:26.367Z, 38.19
2022-08-12T09:34:33.276Z, 37.63
2022-08-12T09:35:29.542Z, 37.63
2022-08-12T09:36:31.124Z, 38.39
2022-08-12T09:37:57.644Z, 38.02
2022-08-12T09:38:30.203Z, 37.76
2022-08-12T09:40:05.883Z, 37.37
2022-08-12T09:40:58.063Z, 37.95
2022-08-12T09:42:34.360Z, 37.70
2022-08-12T09:42:43.020Z, 37.57
2022-08-12T09:43:29.895Z, 38.01
2022-08-12T09:44:39.595Z, 37.96
2022-08-12T09:46:11.782Z, 37.80
2022-08-12T09:46:29.926Z, 37.77
2022-08-12T09:47:29.972Z, 37.92
2022-08-12T09:48:35.035Z, 38.40
2022-08-12T09:49:29.949Z, 38.52
2022-08-12T09:50:30.060Z, 37.79
2022-08-12T09:51:38.414Z, 38.42
2022-08-12T09:52:31.993Z, 38.25
2022-08-12T09:53:38.322Z, 37.94
2022-08-12T09:54:33.562Z, 37.46
2022-08-12T09:56:06.896Z, 38.44
2022-08-12T09:56:59.842Z, 37.53
2022-08-12T09:58:45.757Z, 38.05
2022-08-12T09:58:58.266Z, 38.15
2022-08-12T10:00:15.434Z, 38.64
2022-08-12T10:00:35.255Z, 38.54
2022-08-12T10:01:35.704Z, 38.67
2022-08-12T10:02:44.430Z, 38.74
2022-08-12T10:03:32.464Z, 39.09
2022-08-12T10:04:30.532Z, 39.46
2022-08-12T10:06:26.461Z, 38.64
2022-08-12T10:06:31.723Z, 39.13
2022-08-12T10:07:40.337Z, 39.46
2022-08-12T10:08:30.634Z, 39.06
2022-08-12T10:09:57.208Z, 39.19
2022-08-12T10:10:30.808Z, 38.50
2022-08-12T10:11:41.394Z, 39.25
2022-08-12T10:12:32.785Z, 39.19
2022-08-12T10:13:39.798Z, 39.30
2022-08-12T10:14:34.582Z, 38.55
2022-08-12T10:16:01.797Z, 38.92
2022-08-12T10:16:35.287Z, 38.86
2022-08-12T10:17:30.891Z, 38.57
2022-08-12T10:18:30.884Z, 39.53
2022-08-12T10:19:36.163Z, 39.05
2022-08-12T10:20:31.016Z, 39.13
2022-08-12T10:21:36.400Z, 39.01
2022-08-12T10:22:36.760Z, 38.84
2022-08-12T10:23:39.839Z, 38.99
2022-08-12T10:24:31.088Z, 38.98
2022-08-12T10:26:35.409Z, 39.27
2022-08-12T10:26:38.746Z, 38.80
2022-08-12T10:28:03.781Z, 39.23
2022-08-12T10:28:31.203Z, 38.87
2022-08-12T10:30:39.036Z, 38.58
2022-08-12T10:30:41.983Z, 38.59
2022-08-12T10:32:01.620Z, 39.36
2022-08-12T10:32:56.623Z, 38.79
2022-08-12T10:33:32.262Z, 38.82
2022-08-12T10:34:31.396Z, 38.86
2022-08-12T10:35:31.417Z, 38.68
2022-08-12T10:36:39.963Z, 38.80
2022-08-12T10:38:35.824Z, 39.63
2022-08-12T10:38:38.983Z, 38.55
2022-08-12T10:40:01.533Z, 38.61
2022-08-12T10:40:33.006Z, 38.57
2022-08-12T10:41:58.766Z, 39.14
2022-08-12T10:42:31.689Z, 39.23
2022-08-12T10:43:55.185Z, 39.37
2022-08-12T10:44:31.692Z, 38.91
2022-08-12T10:45:31.751Z, 39.29
2022-08-12T10:46:32.138Z, 39.03
2022-08-12T10:48:07.816Z, 38.62
2022-08-12T10:48:34.209Z, 39.02
2022-08-12T10:50:02.357Z, 38.54
2022-08-12T10:50:56.305Z, 38.98
2022-08-12T10:52:02.850Z, 38.95
2022-08-12T10:52:34.223Z, 38.97
2022-08-12T10:53:43.686Z, 39.13
2022-08-12T10:54:32.093Z, 39.06
2022-08-12T10:55:32.070Z, 38.67
2022-08-12T10:56:34.173Z, 39.23
2022-08-12T10:58:14.611Z, 39.58
2022-08-12T10:58:32.217Z, 38.75
2022-08-12T11:00:01.466Z, 39.37
2022-08-12T11:00:35.557Z, 38.75
2022-08-12T11:04:15.163Z, 38.61
2022-08-12T11:04:22.848Z, 38.79
2022-08-12T11:04:25.546Z, 38.97
2022-08-12T11:04:44.986Z, 38.93
2022-08-12T11:07:02.638Z, 38.58
2022-08-12T11:07:09.386Z, 39.11
2022-08-12T11:08:36.370Z, 38.49
2022-08-12T11:08:39.633Z, 38.46
2022-08-12T11:09:56.509Z, 39.18
2022-08-12T11:10:32.573Z, 38.76
2022-08-12T11:12:35.016Z, 38.43
2022-08-12T11:12:55.609Z, 38.62
2022-08-12T11:13:45.956Z, 39.65
2022-08-12T11:14:49.239Z, 39.34
2022-08-12T11:16:18.761Z, 38.59
2022-08-12T11:16:32.815Z, 38.76
2022-08-12T11:17:43.515Z, 39.05
2022-08-12T11:18:32.966Z, 38.62
2022-08-12T11:19:33.166Z, 39.17
2022-08-12T11:20:32.963Z, 38.53
2022-08-12T11:21:56.791Z, 38.61
2022-08-12T11:22:32.958Z, 38.53
2022-08-12T11:23:37.210Z, 38.69
2022-08-12T11:24:33.781Z, 38.67
2022-08-12T11:25:55.516Z, 38.50
2022-08-12T11:26:33.088Z, 38.40
2022-08-12T11:27:33.142Z, 38.38
2022-08-12T11:28:36.771Z, 38.78
2022-08-12T11:30:02.477Z, 38.66
2022-08-12T11:30:33.335Z, 39.04
2022-08-12T11:31:41.044Z, 38.94
2022-08-12T11:32:38.580Z, 38.31
2022-08-12T11:34:05.858Z, 38.82
2022-08-12T11:34:52.876Z, 38.49
2022-08-12T11:35:33.434Z, 38.38
2022-08-12T11:36:33.411Z, 39.40
2022-08-12T11:37:57.789Z, 38.44
2022-08-12T11:38:33.499Z, 39.14
2022-08-12T11:40:33.511Z, 38.85
2022-08-12T11:41:33.633Z, 38.50
2022-08-12T11:42:33.620Z, 38.44
2022-08-12T11:43:50.748Z, 38.41
2022-08-12T11:44:37.132Z, 38.55
2022-08-12T11:45:38.818Z, 39.15
2022-08-12T11:46:33.741Z, 39.07
2022-08-12T11:47:33.767Z, 38.60
2022-08-12T11:48:50.933Z, 38.65
2022-08-12T11:49:33.842Z, 38.50
2022-08-12T11:50:33.882Z, 39.14
2022-08-12T11:51:36.547Z, 38.77
2022-08-12T11:52:55.092Z, 38.43
2022-08-12T11:53:59.416Z, 38.25
2022-08-12T11:54:34.001Z, 38.27
2022-08-12T11:55:34.073Z, 38.41
2022-08-12T11:56:38.540Z, 38.62
2022-08-12T11:58:39.416Z, 39.14
2022-08-12T12:01:02.698Z, 39.04
2022-08-12T12:02:00.777Z, 39.27
2022-08-12T12:02:34.500Z, 38.65
2022-08-12T12:03:40.444Z, 38.85
2022-08-12T12:04:34.352Z, 38.40
2022-08-12T12:05:41.977Z, 38.65
2022-08-12T12:06:34.470Z, 38.66
2022-08-12T12:08:37.187Z, 38.78
2022-08-12T12:08:41.729Z, 38.84
2022-08-12T12:09:52.459Z, 38.52
2022-08-12T12:10:34.539Z, 38.50
2022-08-12T12:11:49.108Z, 38.50
2022-08-12T12:12:34.635Z, 38.78
2022-08-12T12:14:06.935Z, 38.97
2022-08-12T12:14:37.892Z, 38.54
2022-08-12T12:15:40.861Z, 38.53
2022-08-12T12:16:39.540Z, 38.61
2022-08-12T12:17:38.474Z, 38.55
2022-08-12T12:18:34.849Z, 39.18
2022-08-12T12:19:45.523Z, 38.57
2022-08-12T12:20:34.966Z, 38.48
2022-08-12T12:21:47.289Z, 38.98
2022-08-12T12:22:35.036Z, 38.72
2022-08-12T12:23:36.283Z, 39.06
2022-08-12T12:24:35.043Z, 39.21
2022-08-12T12:26:07.041Z, 39.25
2022-08-12T12:26:38.355Z, 38.71
2022-08-12T12:27:42.260Z, 38.90
2022-08-12T12:28:36.931Z, 39.01
2022-08-12T12:30:19.642Z, 39.41
2022-08-12T12:30:35.229Z, 38.55
2022-08-12T12:32:09.238Z, 39.34
2022-08-12T12:32:35.292Z, 38.72
2022-08-12T12:33:56.854Z, 39.02
2022-08-12T12:34:35.339Z, 39.16
2022-08-12T12:36:16.507Z, 39.31
2022-08-12T12:36:35.394Z, 39.05
2022-08-12T12:38:03.372Z, 38.73
2022-08-12T12:38:35.469Z, 38.78